createdAt,value
2019-02-18T00:02:01.740Z,75.20
2019-02-18T00:06:58.208Z,74.80
2019-02-18T00:09:26.609Z,74.50
2019-02-18T00:11:55.000Z,74.40
2019-02-18T00:14:23.415Z,74.30
2019-02-18T00:16:51.808Z,74.20
2019-02-18T00:19:20.215Z,74.20
2019-02-18T00:24:16.756Z,74.00
2019-02-18T00:26:45.164Z,74.00
2019-02-18T00:29:13.560Z,73.90
2019-02-18T00:31:41.965Z,74.00
2019-02-18T00:34:10.358Z,73.90
2019-02-18T00:36:38.763Z,73.80
2019-02-18T00:39:07.156Z,73.80
2019-02-18T00:41:35.664Z,73.80
2019-02-18T00:44:04.058Z,74.10
2019-02-18T00:49:00.539Z,74.50
2019-02-18T00:51:28.938Z,74.90
2019-02-18T00:53:57.345Z,75.10
2019-02-18T00:56:25.977Z,75.20
2019-02-18T00:58:54.445Z,75.20
2019-02-18T01:01:22.857Z,75.20
2019-02-18T01:03:51.340Z,74.90
2019-02-18T01:08:47.897Z,74.80
2019-02-18T01:11:16.302Z,74.70
2019-02-18T01:13:44.795Z,74.90
2019-02-18T01:16:13.200Z,75.10
2019-02-18T01:18:41.601Z,74.80
2019-02-18T01:21:10.008Z,74.70
2019-02-18T01:26:06.487Z,74.40
2019-02-18T01:31:02.965Z,74.40
2019-02-18T01:33:31.360Z,74.60
2019-02-18T01:35:59.773Z,74.70
2019-02-18T01:38:28.265Z,74.80
2019-02-18T01:40:56.736Z,75.20
2019-02-18T01:43:25.136Z,75.40
2019-02-18T01:45:53.689Z,75.70
2019-02-18T01:48:22.097Z,75.70
2019-02-18T01:50:50.496Z,75.50
2019-02-18T01:53:18.898Z,75.70
2019-02-18T01:55:47.301Z,75.60
2019-02-18T01:58:15.971Z,75.80
2019-02-18T02:00:44.380Z,75.80
2019-02-18T02:03:12.783Z,76.10
2019-02-18T02:05:41.194Z,76.00
2019-02-18T02:08:09.588Z,75.90
2019-02-18T02:10:37.992Z,75.70
2019-02-18T02:13:26.747Z,75.80
2019-02-18T02:15:55.525Z,76.00
2019-02-18T02:20:52.010Z,76.00
2019-02-18T02:23:20.405Z,76.10
2019-02-18T02:28:16.887Z,76.30
2019-02-18T02:30:45.289Z,76.30
2019-02-18T02:33:13.703Z,76.50
2019-02-18T02:35:42.100Z,76.90
2019-02-18T02:38:10.562Z,76.70
2019-02-18T02:43:07.091Z,75.70
2019-02-18T02:45:35.518Z,76.30
2019-02-18T02:48:03.988Z,76.90
2019-02-18T02:53:00.464Z,76.90
2019-02-18T02:55:28.865Z,76.80
2019-02-18T02:57:57.273Z,76.60
2019-02-18T03:00:25.772Z,76.60
2019-02-18T03:02:54.218Z,76.50
2019-02-18T03:07:51.166Z,76.90
2019-02-18T03:10:19.565Z,76.80
2019-02-18T03:15:16.040Z,76.50
2019-02-18T03:17:44.808Z,76.60
2019-02-18T03:20:13.487Z,76.70
2019-02-18T03:22:41.881Z,76.30
2019-02-18T03:25:24.522Z,76.20
2019-02-18T03:27:56.338Z,76.30
2019-02-18T03:30:56.542Z,76.30
2019-02-18T03:33:39.865Z,76.20
2019-02-18T03:36:08.322Z,76.60
2019-02-18T03:38:36.728Z,76.70
2019-02-18T03:41:05.397Z,76.80
2019-02-18T03:43:34.080Z,76.90
2019-02-18T03:46:02.484Z,77.00
2019-02-18T03:53:29.973Z,77.40
2019-02-18T03:55:58.380Z,77.40
2019-02-18T04:03:22.960Z,77.70
2019-02-18T04:05:51.362Z,77.70
2019-02-18T04:11:33.300Z,77.70
2019-02-18T04:14:01.746Z,77.80
2019-02-18T04:18:58.295Z,78.10
2019-02-18T04:21:26.800Z,78.00
2019-02-18T04:23:55.312Z,78.10
2019-02-18T04:26:23.701Z,78.20
2019-02-18T04:28:52.110Z,78.30
2019-02-18T04:31:20.510Z,78.30
2019-02-18T04:33:48.915Z,78.30
2019-02-18T04:36:17.362Z,78.10
2019-02-18T04:41:15.551Z,77.70
2019-02-18T04:43:43.956Z,77.70
2019-02-18T04:46:12.349Z,78.10
2019-02-18T04:48:40.783Z,78.20
2019-02-18T04:51:09.236Z,77.70
2019-02-18T04:53:37.625Z,77.70
2019-02-18T04:56:06.050Z,77.80
2019-02-18T04:58:34.467Z,78.10
2019-02-18T05:01:03.115Z,78.20
2019-02-18T05:03:31.749Z,78.30
2019-02-18T05:06:00.162Z,78.30
2019-02-18T05:10:56.636Z,78.50
2019-02-18T05:13:25.031Z,78.70
2019-02-18T05:15:53.446Z,78.50
2019-02-18T05:18:21.837Z,78.50
2019-02-18T05:20:50.288Z,78.50
2019-02-18T05:23:18.684Z,78.40
2019-02-18T05:25:47.240Z,78.40
2019-02-18T05:28:15.637Z,78.10
2019-02-18T05:30:44.041Z,78.10
2019-02-18T05:33:12.501Z,78.20
2019-02-18T05:35:40.901Z,78.30
2019-02-18T05:40:37.410Z,78.60
2019-02-18T05:45:33.942Z,78.70
2019-02-18T05:52:59.606Z,78.80
2019-02-18T05:55:28.029Z,78.90
2019-02-18T05:57:56.447Z,79.40
2019-02-18T06:00:24.890Z,79.40
2019-02-18T06:02:53.326Z,79.10
2019-02-18T06:05:21.868Z,78.70
2019-02-18T06:07:50.265Z,78.60
2019-02-18T06:10:18.670Z,78.80
2019-02-18T06:12:47.244Z,78.90
2019-02-18T06:17:43.763Z,79.10
2019-02-18T06:22:40.241Z,79.20
2019-02-18T06:25:08.824Z,79.60
2019-02-18T06:27:37.230Z,79.40
2019-02-18T06:30:08.666Z,79.40
2019-02-18T06:35:06.999Z,79.20
2019-02-18T06:37:35.412Z,79.40
2019-02-18T06:40:04.732Z,79.70
2019-02-18T06:45:02.942Z,79.10
2019-02-18T06:47:31.371Z,79.00
2019-02-18T06:49:59.764Z,79.00
2019-02-18T06:52:28.167Z,78.80
2019-02-18T06:54:56.569Z,78.90
2019-02-18T06:57:26.616Z,79.00
2019-02-18T06:59:55.089Z,79.00
2019-02-18T07:04:57.562Z,79.70
2019-02-18T07:07:36.291Z,80.30
2019-02-18T07:10:22.075Z,80.60
2019-02-18T07:12:50.479Z,79.20
2019-02-18T07:15:18.931Z,78.10
2019-02-18T07:17:47.344Z,76.90
2019-02-18T07:27:39.962Z,75.10
2019-02-18T07:32:38.246Z,74.60
2019-02-18T07:35:06.768Z,74.40
2019-02-18T07:37:35.170Z,74.10
2019-02-18T07:40:04.633Z,73.00
2019-02-18T07:45:01.141Z,72.30
2019-02-18T07:47:29.531Z,70.60
2019-02-18T07:49:57.924Z,70.50
2019-02-18T07:52:26.366Z,71.60
2019-02-18T07:54:54.756Z,71.80
2019-02-18T07:57:23.169Z,72.50
2019-02-18T07:59:51.556Z,72.50
2019-02-18T08:02:19.970Z,71.90
2019-02-18T08:07:16.452Z,72.80
2019-02-18T08:09:44.852Z,72.50
2019-02-18T08:12:13.289Z,71.80
2019-02-18T08:14:41.726Z,71.30
2019-02-18T08:17:10.160Z,71.50
2019-02-18T08:19:38.604Z,71.10
2019-02-18T08:22:07.084Z,71.20
2019-02-18T08:27:03.620Z,71.10
2019-02-18T08:29:32.025Z,71.20
2019-02-18T08:32:00.420Z,70.00
2019-02-18T08:34:28.861Z,69.80
2019-02-18T08:36:57.380Z,68.80
2019-02-18T08:39:25.784Z,67.80
2019-02-18T08:42:13.524Z,68.30
2019-02-18T08:44:41.928Z,66.90
2019-02-18T08:47:10.328Z,67.40
2019-02-18T08:49:38.829Z,67.40
2019-02-18T08:52:07.266Z,67.30
2019-02-18T08:54:35.664Z,66.10
2019-02-18T08:57:04.097Z,65.80
2019-02-18T08:59:32.496Z,66.30
2019-02-18T09:02:00.901Z,66.30
2019-02-18T09:04:48.745Z,65.90
2019-02-18T09:07:17.143Z,64.70
2019-02-18T09:09:45.650Z,63.80
2019-02-18T09:12:14.042Z,63.10
2019-02-18T09:14:42.487Z,62.30
2019-02-18T09:19:38.948Z,62.30
2019-02-18T09:22:09.065Z,62.10
2019-02-18T09:24:42.044Z,61.80
2019-02-18T09:27:10.475Z,60.60
2019-02-18T09:29:38.876Z,59.00
2019-02-18T09:32:07.307Z,59.60
2019-02-18T09:34:35.708Z,59.20
2019-02-18T09:37:04.178Z,59.20
2019-02-18T09:39:32.591Z,57.90
2019-02-18T09:42:00.980Z,56.80
2019-02-18T09:44:29.392Z,56.60
2019-02-18T09:46:57.797Z,57.20
2019-02-18T09:49:26.260Z,57.50
2019-02-18T09:51:54.663Z,56.70
2019-02-18T09:54:23.224Z,56.20
2019-02-18T09:56:51.663Z,55.10
2019-02-18T09:59:20.068Z,55.20
2019-02-18T10:01:48.473Z,53.30
2019-02-18T10:04:16.875Z,53.40
2019-02-18T10:06:45.328Z,54.00
2019-02-18T10:11:41.784Z,54.30
2019-02-18T10:16:38.296Z,53.50
2019-02-18T10:19:06.698Z,54.40
2019-02-18T10:21:35.150Z,53.20
2019-02-18T10:24:03.546Z,53.30
2019-02-18T10:26:31.952Z,52.90
2019-02-18T10:29:00.352Z,52.30
2019-02-18T10:33:56.869Z,52.20
2019-02-18T10:36:25.274Z,51.60
2019-02-18T10:43:49.832Z,50.20
2019-02-18T10:46:18.252Z,51.20
2019-02-18T10:48:46.656Z,51.20
2019-02-18T10:51:15.064Z,50.80
2019-02-18T10:53:43.471Z,50.20
2019-02-18T10:56:12.195Z,50.60
2019-02-18T10:58:40.588Z,48.90
2019-02-18T11:03:37.113Z,47.90
2019-02-18T11:06:05.587Z,48.50
2019-02-18T11:11:02.141Z,47.80
2019-02-18T11:13:30.540Z,48.50
2019-02-18T11:15:58.962Z,48.20
2019-02-18T11:18:27.359Z,49.00
2019-02-18T11:20:55.764Z,50.00
2019-02-18T11:23:24.474Z,50.80
2019-02-18T11:25:52.994Z,52.70
2019-02-18T11:28:21.426Z,53.00
2019-02-18T11:30:49.857Z,54.80
2019-02-18T11:33:18.251Z,55.20
2019-02-18T11:35:46.709Z,55.60
2019-02-18T11:40:43.378Z,55.20
2019-02-18T11:43:11.772Z,54.80
2019-02-18T11:45:40.164Z,54.70
2019-02-18T11:48:08.576Z,54.20
2019-02-18T11:50:36.977Z,54.20
2019-02-18T11:55:33.494Z,52.90
2019-02-18T11:58:01.905Z,53.10
2019-02-18T12:03:03.140Z,52.30
2019-02-18T12:07:56.689Z,51.50
2019-02-18T12:10:25.298Z,51.30
2019-02-18T12:15:23.667Z,49.90
2019-02-18T12:17:52.072Z,49.80
2019-02-18T12:20:20.473Z,50.50
2019-02-18T12:22:48.922Z,50.20
2019-02-18T12:25:17.394Z,50.10
2019-02-18T12:27:45.800Z,50.10
2019-02-18T12:32:43.964Z,49.30
2019-02-18T12:35:12.589Z,48.80
2019-02-18T12:37:41.003Z,49.00
2019-02-18T12:40:11.445Z,49.20
2019-02-18T12:42:42.174Z,49.30
2019-02-18T12:45:11.816Z,49.60
2019-02-18T12:47:40.303Z,49.20
2019-02-18T12:50:10.909Z,49.60
2019-02-18T12:52:39.444Z,49.30
2019-02-18T12:55:09.672Z,49.20
2019-02-18T13:00:16.204Z,48.80
2019-02-18T13:02:45.324Z,48.90
2019-02-18T13:05:14.340Z,48.70
2019-02-18T13:07:42.806Z,48.70
2019-02-18T13:10:12.026Z,48.80
2019-02-18T13:12:41.087Z,49.10
2019-02-18T13:15:17.369Z,49.30
2019-02-18T13:17:45.959Z,49.70
2019-02-18T13:22:42.584Z,49.60
2019-02-18T13:25:11.156Z,49.30
2019-02-18T13:27:39.683Z,49.50
2019-02-18T13:30:11.131Z,49.50
2019-02-18T13:32:39.607Z,49.50
2019-02-18T13:35:08.044Z,49.50
2019-02-18T13:37:36.452Z,49.20
2019-02-18T13:40:05.603Z,48.90
2019-02-18T13:42:34.042Z,48.80
2019-02-18T13:47:30.896Z,49.10
2019-02-18T13:49:59.335Z,49.50
2019-02-18T13:52:27.821Z,49.60
2019-02-18T13:54:56.269Z,49.20
2019-02-18T13:57:24.740Z,49.30
2019-02-18T14:02:21.228Z,50.50
2019-02-18T14:04:49.636Z,51.00
2019-02-18T14:07:18.034Z,51.40
2019-02-18T14:09:46.440Z,51.70
2019-02-18T14:12:16.393Z,51.80
2019-02-18T14:14:45.023Z,51.80
2019-02-18T14:17:13.892Z,52.50
2019-02-18T14:19:42.304Z,54.00
2019-02-18T14:22:10.700Z,52.40
2019-02-18T14:24:39.115Z,52.10
2019-02-18T14:27:07.508Z,52.90
2019-02-18T14:29:36.092Z,53.80
2019-02-18T14:32:05.009Z,54.30
2019-02-18T14:34:33.415Z,55.80
2019-02-18T14:39:30.473Z,56.00
2019-02-18T14:41:58.921Z,55.70
2019-02-18T14:44:27.357Z,55.30
2019-02-18T14:46:55.755Z,55.70
2019-02-18T14:49:24.164Z,55.90
2019-02-18T14:51:52.632Z,55.90
2019-02-18T14:54:21.207Z,55.50
2019-02-18T14:56:49.604Z,55.20
2019-02-18T14:59:18.020Z,55.70
2019-02-18T15:01:46.860Z,55.80
2019-02-18T15:04:15.587Z,56.50
2019-02-18T15:06:44.059Z,57.20
2019-02-18T15:09:12.487Z,57.60
2019-02-18T15:11:40.945Z,58.10
2019-02-18T15:14:09.519Z,58.50
2019-02-18T15:16:37.924Z,57.80
2019-02-18T15:24:02.668Z,57.30
2019-02-18T15:26:31.476Z,57.50
2019-02-18T15:28:59.956Z,58.10
2019-02-18T15:31:28.372Z,58.10
2019-02-18T15:36:25.216Z,57.30
2019-02-18T15:41:22.026Z,57.30
2019-02-18T15:43:50.599Z,57.30
2019-02-18T15:46:19.106Z,57.60
2019-02-18T15:53:43.656Z,59.00
2019-02-18T15:56:12.048Z,59.30
2019-02-18T15:58:40.466Z,59.40
2019-02-18T16:01:08.873Z,59.10
2019-02-18T16:03:37.337Z,59.10
2019-02-18T16:06:05.787Z,59.00
2019-02-18T16:08:34.552Z,58.70
2019-02-18T16:11:03.073Z,58.70
2019-02-18T16:13:31.456Z,59.10
2019-02-18T16:18:28.050Z,59.50
2019-02-18T16:20:56.458Z,59.80
2019-02-18T16:23:24.853Z,60.00
2019-02-18T16:25:53.295Z,60.00
2019-02-18T16:28:21.760Z,60.20
2019-02-18T16:30:50.244Z,60.40
2019-02-18T16:35:46.727Z,60.80
2019-02-18T16:38:15.194Z,61.10
2019-02-18T16:40:43.676Z,61.40
2019-02-18T16:43:12.071Z,62.00
2019-02-18T16:45:40.480Z,62.30
2019-02-18T16:48:09.725Z,62.80
2019-02-18T16:50:38.134Z,62.90
2019-02-18T16:53:06.520Z,63.20
2019-02-18T16:55:35.244Z,63.70
2019-02-18T17:00:33.527Z,64.10
2019-02-18T17:03:01.967Z,64.20
2019-02-18T17:05:30.452Z,64.50
2019-02-18T17:07:58.848Z,64.60
2019-02-18T17:10:28.780Z,64.70
2019-02-18T17:12:57.212Z,64.70
2019-02-18T17:15:25.684Z,64.90
2019-02-18T17:17:54.144Z,65.20
2019-02-18T17:20:22.550Z,65.20
2019-02-18T17:22:51.053Z,65.40
2019-02-18T17:25:20.063Z,65.60
2019-02-18T17:27:48.941Z,65.90
2019-02-18T17:32:45.441Z,66.30
2019-02-18T17:37:42.484Z,66.80
2019-02-18T17:42:40.439Z,67.20
2019-02-18T17:47:43.606Z,67.50
2019-02-18T17:50:14.116Z,67.70
2019-02-18T17:57:40.363Z,68.10
2019-02-18T18:00:15.237Z,68.20
2019-02-18T18:02:43.634Z,68.10
2019-02-18T18:05:12.229Z,68.40
2019-02-18T18:07:40.700Z,68.00
2019-02-18T18:10:11.600Z,68.00
2019-02-18T18:15:11.056Z,68.50
2019-02-18T18:17:39.732Z,68.70
2019-02-18T18:20:13.154Z,68.80
2019-02-18T18:27:57.534Z,69.20
2019-02-18T18:32:54.111Z,69.60
2019-02-18T18:37:51.192Z,69.90
2019-02-18T18:40:20.474Z,70.00
2019-02-18T18:45:18.592Z,69.90
2019-02-18T18:47:47.090Z,70.00
2019-02-18T18:52:47.653Z,70.20
2019-02-18T18:55:16.080Z,70.40
2019-02-18T18:57:44.487Z,70.40
2019-02-18T19:02:43.867Z,69.70
2019-02-18T19:07:40.778Z,70.20
2019-02-18T19:12:37.797Z,70.60
2019-02-18T19:15:14.216Z,70.90
2019-02-18T19:17:42.621Z,70.90
2019-02-18T19:20:11.761Z,71.10
2019-02-18T19:22:40.336Z,71.10
2019-02-18T19:25:10.206Z,71.20
2019-02-18T19:27:38.604Z,71.30
2019-02-18T19:30:15.944Z,71.40
2019-02-18T19:32:44.347Z,71.50
2019-02-18T19:35:12.779Z,71.60
2019-02-18T19:37:41.175Z,71.60
2019-02-18T19:40:11.712Z,71.80
2019-02-18T19:42:40.188Z,71.80
2019-02-18T19:45:17.260Z,71.90
2019-02-18T19:47:45.904Z,71.90
2019-02-18T19:50:14.296Z,71.90
2019-02-18T19:52:42.694Z,71.90
2019-02-18T19:55:12.628Z,71.60
2019-02-18T20:00:19.762Z,72.40
2019-02-18T20:02:48.504Z,72.60
2019-02-18T20:07:45.065Z,72.10
2019-02-18T20:12:41.834Z,72.70
2019-02-18T20:15:13.574Z,72.80
2019-02-18T20:20:15.712Z,72.80
2019-02-18T20:22:44.459Z,72.60
2019-02-18T20:25:13.115Z,72.80
2019-02-18T20:27:41.608Z,72.90
2019-02-18T20:30:13.011Z,72.80
2019-02-18T20:32:41.410Z,72.90
2019-02-18T20:35:10.737Z,72.70
2019-02-18T20:37:39.170Z,72.60
2019-02-18T20:40:09.411Z,72.80
2019-02-18T20:42:57.742Z,73.00
2019-02-18T20:47:54.191Z,73.20
2019-02-18T20:50:22.606Z,73.30
2019-02-18T20:52:51.034Z,73.20
2019-02-18T20:55:20.290Z,73.40
2019-02-18T20:57:48.766Z,73.40
2019-02-18T21:00:19.399Z,73.40
2019-02-18T21:02:48.068Z,73.70
2019-02-18T21:05:16.528Z,73.70
2019-02-18T21:10:16.662Z,73.80
2019-02-18T21:12:45.459Z,73.70
2019-02-18T21:15:13.916Z,73.90
2019-02-18T21:17:42.352Z,73.90
2019-02-18T21:20:12.541Z,74.00
2019-02-18T21:22:41.120Z,73.80
2019-02-18T21:25:10.668Z,74.00
2019-02-18T21:27:39.052Z,73.90
2019-02-18T21:30:13.312Z,74.00
2019-02-18T21:32:41.772Z,73.90
2019-02-18T21:35:10.248Z,73.90
2019-02-18T21:42:36.574Z,74.50
2019-02-18T21:45:07.687Z,74.60
2019-02-18T21:50:06.096Z,74.60
2019-02-18T21:52:34.491Z,74.60
2019-02-18T21:55:02.999Z,74.60
2019-02-18T21:57:31.439Z,74.70
2019-02-18T21:59:59.839Z,74.80
2019-02-18T22:04:56.316Z,74.90
2019-02-18T22:07:24.746Z,75.20
2019-02-18T22:09:53.612Z,75.30
2019-02-18T22:12:22.029Z,75.40
2019-02-18T22:14:50.642Z,75.40
2019-02-18T22:17:19.078Z,75.60
2019-02-18T22:19:47.510Z,75.70
2019-02-18T22:22:15.908Z,75.80
2019-02-18T22:24:44.394Z,75.80
2019-02-18T22:27:13.407Z,75.90
2019-02-18T22:32:09.889Z,75.70
2019-02-18T22:34:38.314Z,75.70
2019-02-18T22:37:06.725Z,75.80
2019-02-18T22:39:35.120Z,75.90
2019-02-18T22:42:03.566Z,75.80
2019-02-18T22:44:32.424Z,75.70
2019-02-18T22:47:00.828Z,76.00
2019-02-18T22:49:29.228Z,76.20
2019-02-18T22:51:57.709Z,76.20
2019-02-18T22:56:54.187Z,76.50
2019-02-18T22:59:22.582Z,76.10
2019-02-18T23:01:50.976Z,76.00
2019-02-18T23:04:19.376Z,76.10
2019-02-18T23:09:16.059Z,76.30
2019-02-18T23:11:44.468Z,76.30
2019-02-18T23:14:12.869Z,76.50
2019-02-18T23:16:41.276Z,76.80
2019-02-18T23:19:09.836Z,77.10
2019-02-18T23:21:38.240Z,76.90
2019-02-18T23:24:06.676Z,76.80
2019-02-18T23:26:35.152Z,76.70
2019-02-18T23:29:03.544Z,76.70
2019-02-18T23:31:31.984Z,76.70
2019-02-18T23:34:00.948Z,76.70
2019-02-18T23:38:57.421Z,76.60
2019-02-18T23:41:25.824Z,76.50
2019-02-18T23:43:54.231Z,76.30
2019-02-18T23:46:22.667Z,76.20
2019-02-18T23:48:51.164Z,76.20
2019-02-18T23:51:19.587Z,76.10
2019-02-18T23:53:47.984Z,76.10
2019-02-18T23:56:16.593Z,75.90
2019-02-18T23:58:44.999Z,75.90
